DTTG

Details ICAO DTTG (GAE)
Name GABES
Region Tunisia
Timezone Africa/Tunis (UTC+1.0)
Plans Departing 10
Arriving 8
Stats Elevation 26 ft / 8 m (AMSL)
Location 33.876922° 10.103326°
Runways 1
Magnetic Variation 2.259° E
Sunrise 2018-05-20 04:16:40 UTC / 2018-05-20 05:16:40 Local
Sunset 2018-05-20 18:18:23 UTC / 2018-05-20 19:18:23 Local
Advertisement - Login to hide

Runways

ID Width Length Bearing (true) Bearing (mag) Surface Threshold Offset Overrun Length
06 82 ft / 25 m 3,697 ft / 1,127 m 60.60° 58.34° Asphalt 0 ft / 0 m 0 ft / 0 m
24 82 ft / 25 m 3,697 ft / 1,127 m 240.61° 238.35° Asphalt 0 ft / 0 m 0 ft / 0 m

Map

Weather


0- 5 10 15 20 25 30 35+ Temperature / ° C

Clouds and Precipitation
Forecast for 2018-05-20 18:00 UTC. Updated an hour ago

Ground ~20,000 ft ~40,000 ft Winds

METAR

DTTG 201600Z 08014KT 9999 FEW030 24/12 Q1008 NOSIG

TAF

Not found
Warning: Do not use this data for real-world aviation or navigation. No guarantee of current accuracy is given.